createdAt,value
2019-01-30T00:00:54.925Z,4.50
2019-01-30T00:03:27.184Z,4.67
2019-01-30T00:05:58.386Z,7.37
2019-01-30T00:08:29.576Z,4.40
2019-01-30T00:11:00.887Z,4.33
2019-01-30T00:13:33.174Z,4.13
2019-01-30T00:16:04.644Z,5.07
2019-01-30T00:18:35.889Z,6.00
2019-01-30T00:21:07.039Z,5.33
2019-01-30T00:23:38.249Z,4.40
2019-01-30T00:26:09.434Z,4.60
2019-01-30T00:28:40.635Z,7.30
2019-01-30T00:31:12.744Z,6.90
2019-01-30T00:33:44.402Z,3.70
2019-01-30T00:36:15.728Z,4.47
2019-01-30T00:38:46.937Z,6.23
2019-01-30T00:41:18.149Z,5.33
2019-01-30T00:43:49.368Z,3.87
2019-01-30T00:46:20.702Z,4.63
2019-01-30T00:48:51.894Z,8.40
2019-01-30T00:51:23.012Z,5.00
2019-01-30T00:53:54.186Z,4.93
2019-01-30T00:56:25.421Z,4.93
2019-01-30T00:58:56.680Z,5.20
2019-01-30T01:01:27.862Z,6.60
2019-01-30T01:03:59.111Z,5.30
2019-01-30T01:06:30.450Z,5.37
2019-01-30T01:09:01.719Z,6.87
2019-01-30T01:11:34.547Z,5.97
2019-01-30T01:14:06.130Z,5.30
2019-01-30T01:16:37.450Z,5.03
2019-01-30T01:19:08.783Z,4.53
2019-01-30T01:21:39.975Z,5.27
2019-01-30T01:24:11.157Z,7.03
2019-01-30T01:26:42.918Z,5.35
2019-01-30T01:29:14.112Z,4.83
2019-01-30T01:31:45.661Z,8.33
2019-01-30T01:34:16.851Z,5.37
2019-01-30T01:36:48.051Z,6.07
2019-01-30T01:39:19.247Z,6.03
2019-01-30T01:41:50.494Z,5.17
2019-01-30T01:44:21.766Z,6.87
2019-01-30T01:46:52.897Z,5.50
2019-01-30T01:49:24.122Z,7.13
2019-01-30T01:51:55.763Z,5.13
2019-01-30T01:54:26.984Z,5.87
2019-01-30T01:56:58.372Z,5.40
2019-01-30T01:59:29.576Z,6.13
2019-01-30T02:02:00.772Z,4.97
2019-01-30T02:04:32.737Z,6.03
2019-01-30T02:07:04.010Z,8.27
2019-01-30T02:09:35.463Z,6.47
2019-01-30T02:12:06.867Z,5.33
2019-01-30T02:14:38.263Z,7.60
2019-01-30T02:17:09.477Z,5.47
2019-01-30T02:19:40.722Z,4.97
2019-01-30T02:22:11.932Z,6.37
2019-01-30T02:24:43.883Z,7.93
2019-01-30T02:27:15.748Z,7.30
2019-01-30T02:29:46.932Z,5.87
2019-01-30T02:32:18.124Z,6.67
2019-01-30T02:34:49.323Z,6.80
2019-01-30T02:37:20.670Z,6.33
2019-01-30T02:39:52.040Z,6.30
2019-01-30T02:42:23.236Z,4.83
2019-01-30T02:44:54.429Z,7.13
2019-01-30T02:47:25.731Z,5.40
2019-01-30T02:49:56.925Z,4.97
2019-01-30T02:52:28.115Z,5.93
2019-01-30T02:54:59.322Z,5.73
2019-01-30T02:57:30.562Z,5.30
2019-01-30T03:00:02.916Z,5.03
2019-01-30T03:02:34.205Z,5.20
2019-01-30T03:05:07.613Z,5.27
2019-01-30T03:07:40.087Z,4.97
2019-01-30T03:10:13.995Z,4.63
2019-01-30T03:12:45.338Z,4.60
2019-01-30T03:15:17.484Z,7.87
2019-01-30T03:17:48.740Z,4.90
2019-01-30T03:20:21.693Z,5.03
2019-01-30T03:22:52.901Z,4.83
2019-01-30T03:25:24.746Z,5.40
2019-01-30T03:27:55.942Z,4.40
2019-01-30T03:30:29.027Z,5.70
2019-01-30T03:33:00.210Z,4.20
2019-01-30T03:35:31.416Z,4.70
2019-01-30T03:38:02.590Z,7.10
2019-01-30T03:40:34.419Z,4.60
2019-01-30T03:43:05.976Z,4.83
2019-01-30T03:45:37.161Z,4.63
2019-01-30T03:48:08.348Z,4.33
2019-01-30T03:50:39.458Z,4.53
2019-01-30T03:53:11.251Z,4.72
2019-01-30T03:55:42.901Z,5.20
2019-01-30T03:58:14.146Z,4.20
2019-01-30T04:00:45.829Z,4.70
2019-01-30T04:03:17.423Z,4.77
2019-01-30T04:05:48.732Z,5.13
2019-01-30T04:08:19.910Z,5.50
2019-01-30T04:10:51.079Z,4.73
2019-01-30T04:13:23.992Z,5.10
2019-01-30T04:15:55.217Z,4.57
2019-01-30T04:18:26.778Z,5.07
2019-01-30T04:20:58.130Z,4.70
2019-01-30T04:23:29.258Z,4.40
2019-01-30T04:26:00.496Z,5.27
2019-01-30T04:28:31.688Z,4.05
2019-01-30T04:31:02.893Z,4.50
2019-01-30T04:33:34.080Z,4.10
2019-01-30T04:36:06.028Z,3.87
2019-01-30T04:38:37.209Z,4.23
2019-01-30T04:41:08.444Z,3.90
2019-01-30T04:43:39.682Z,4.30
2019-01-30T04:46:10.878Z,4.43
2019-01-30T04:48:42.752Z,4.03
2019-01-30T04:51:13.971Z,3.53
2019-01-30T04:53:45.225Z,4.17
2019-01-30T04:56:17.697Z,4.20
2019-01-30T04:58:48.909Z,3.83
2019-01-30T05:01:20.118Z,3.80
2019-01-30T05:03:51.301Z,3.90
2019-01-30T05:06:22.844Z,3.67
2019-01-30T05:08:55.941Z,3.37
2019-01-30T05:11:26.873Z,4.07
2019-01-30T05:14:01.207Z,3.67
2019-01-30T05:16:31.426Z,4.03
2019-01-30T05:19:04.281Z,4.10
2019-01-30T05:21:35.472Z,4.00
2019-01-30T05:24:07.256Z,3.90
2019-01-30T05:26:38.452Z,4.40
2019-01-30T05:29:09.934Z,4.97
2019-01-30T05:31:41.180Z,4.33
2019-01-30T05:34:12.769Z,7.67
2019-01-30T05:36:43.977Z,5.50
2019-01-30T05:39:15.725Z,6.27
2019-01-30T05:41:46.922Z,5.93
2019-01-30T05:44:18.106Z,4.67
2019-01-30T05:46:49.301Z,4.63
2019-01-30T05:49:20.537Z,4.77
2019-01-30T05:51:51.785Z,4.83
2019-01-30T05:54:22.994Z,4.33
2019-01-30T05:56:54.167Z,4.60
2019-01-30T05:59:25.376Z,5.53
2019-01-30T06:01:56.486Z,5.97
2019-01-30T06:04:35.953Z,4.73
2019-01-30T06:07:08.849Z,7.23
2019-01-30T06:09:40.047Z,5.30
2019-01-30T06:12:11.219Z,4.80
2019-01-30T06:14:42.956Z,5.07
2019-01-30T06:17:14.243Z,6.50
2019-01-30T06:19:45.497Z,5.30
2019-01-30T06:22:16.686Z,5.40
2019-01-30T06:24:47.876Z,4.57
2019-01-30T06:27:19.076Z,5.60
2019-01-30T06:29:50.271Z,6.17
2019-01-30T06:32:22.134Z,4.70
2019-01-30T06:34:53.337Z,4.57
2019-01-30T06:37:24.516Z,4.80
2019-01-30T06:39:56.081Z,4.20
2019-01-30T06:42:27.292Z,5.03
2019-01-30T06:44:58.481Z,5.90
2019-01-30T06:47:29.743Z,5.17
2019-01-30T06:50:00.930Z,6.10
2019-01-30T06:52:32.771Z,6.63
2019-01-30T06:55:04.530Z,4.40
2019-01-30T06:57:35.784Z,4.30
2019-01-30T07:00:12.374Z,5.00
2019-01-30T07:02:43.973Z,4.60
2019-01-30T07:05:15.922Z,4.70
2019-01-30T07:07:47.122Z,5.00
2019-01-30T07:10:20.550Z,5.10
2019-01-30T07:12:51.949Z,4.50
2019-01-30T07:15:23.877Z,4.63
2019-01-30T07:17:55.077Z,5.13
2019-01-30T07:20:26.333Z,4.53
2019-01-30T07:22:58.209Z,4.90
2019-01-30T07:25:29.382Z,4.23
2019-01-30T07:28:00.607Z,4.90
2019-01-30T07:30:34.280Z,5.83
2019-01-30T07:33:06.336Z,4.70
2019-01-30T07:35:37.526Z,5.03
2019-01-30T07:38:08.821Z,5.63
2019-01-30T07:40:39.993Z,4.50
2019-01-30T07:43:11.265Z,6.87
2019-01-30T07:45:42.642Z,4.20
2019-01-30T07:48:15.085Z,4.17
2019-01-30T07:50:46.302Z,4.50
2019-01-30T07:53:17.507Z,4.67
2019-01-30T07:55:48.846Z,4.47
2019-01-30T07:58:20.065Z,4.30
2019-01-30T08:00:51.282Z,4.73
2019-01-30T08:03:22.887Z,5.00
2019-01-30T08:05:54.096Z,4.10
2019-01-30T08:08:25.859Z,4.33
2019-01-30T08:10:57.092Z,4.57
2019-01-30T08:13:28.311Z,6.00
2019-01-30T08:15:59.520Z,5.20
2019-01-30T08:18:30.797Z,6.20
2019-01-30T08:21:02.650Z,6.23
2019-01-30T08:23:34.400Z,5.00
2019-01-30T08:26:06.193Z,4.53
2019-01-30T08:28:37.447Z,4.53
2019-01-30T08:31:09.203Z,5.13
2019-01-30T08:33:40.454Z,4.63
2019-01-30T08:36:12.741Z,4.85
2019-01-30T08:38:43.957Z,4.17
2019-01-30T08:41:15.163Z,4.93
2019-01-30T08:43:46.951Z,4.57
2019-01-30T08:46:18.181Z,4.90
2019-01-30T08:48:49.366Z,4.50
2019-01-30T08:51:20.672Z,4.37
2019-01-30T08:53:51.866Z,4.60
2019-01-30T08:56:23.079Z,4.87
2019-01-30T08:58:54.281Z,5.07
2019-01-30T09:01:25.600Z,3.92
2019-01-30T09:03:56.786Z,5.47
2019-01-30T09:06:28.219Z,5.30
2019-01-30T09:08:59.376Z,5.50
2019-01-30T09:11:30.666Z,5.23
2019-01-30T09:14:01.841Z,6.30
2019-01-30T09:16:33.117Z,7.50
2019-01-30T09:19:04.309Z,4.57
2019-01-30T09:21:35.596Z,7.78
2019-01-30T09:24:06.865Z,6.63
2019-01-30T09:26:39.145Z,10.93
2019-01-30T09:29:10.330Z,6.13
2019-01-30T09:31:41.571Z,6.57
2019-01-30T09:34:12.767Z,6.70
2019-01-30T09:36:43.991Z,5.80
2019-01-30T09:39:15.783Z,9.57
2019-01-30T09:41:47.080Z,7.53
2019-01-30T09:44:18.257Z,9.47
2019-01-30T09:46:49.468Z,9.13
2019-01-30T09:49:20.783Z,13.07
2019-01-30T09:51:52.743Z,11.43
2019-01-30T09:54:24.020Z,11.17
2019-01-30T09:56:55.109Z,14.23
2019-01-30T09:59:26.275Z,12.57
2019-01-30T10:01:58.378Z,8.30
2019-01-30T10:04:29.750Z,15.47
2019-01-30T10:07:00.966Z,13.50
2019-01-30T10:09:33.172Z,8.83
2019-01-30T10:12:04.508Z,10.43
2019-01-30T10:14:35.990Z,11.33
2019-01-30T10:17:07.241Z,18.03
2019-01-30T10:19:41.372Z,12.60
2019-01-30T10:22:11.846Z,12.75
2019-01-30T10:24:43.144Z,13.63
2019-01-30T10:27:14.339Z,11.67
2019-01-30T10:29:45.534Z,11.70
2019-01-30T10:32:16.786Z,12.87
2019-01-30T10:34:48.102Z,12.93
2019-01-30T10:37:19.422Z,13.43
2019-01-30T10:39:50.742Z,11.20
2019-01-30T10:42:22.743Z,13.47
2019-01-30T10:44:54.406Z,9.83
2019-01-30T10:47:25.689Z,10.77
2019-01-30T10:49:56.873Z,9.53
2019-01-30T10:52:28.198Z,14.37
2019-01-30T10:54:59.419Z,11.73
2019-01-30T10:57:30.797Z,13.27
2019-01-30T11:00:02.875Z,18.07
2019-01-30T11:02:34.137Z,11.53
2019-01-30T11:05:06.567Z,15.73
2019-01-30T11:07:37.713Z,11.57
2019-01-30T11:10:08.962Z,10.33
2019-01-30T11:12:40.288Z,13.70
2019-01-30T11:15:13.434Z,9.97
2019-01-30T11:17:45.114Z,11.87
2019-01-30T11:20:17.787Z,14.73
2019-01-30T11:22:49.278Z,13.13
2019-01-30T11:25:29.276Z,12.17
2019-01-30T11:28:00.451Z,12.63
2019-01-30T11:30:32.152Z,14.80
2019-01-30T11:33:03.913Z,17.93
2019-01-30T11:35:35.759Z,12.33
2019-01-30T11:38:09.027Z,10.73
2019-01-30T11:40:40.320Z,13.07
2019-01-30T11:43:11.708Z,14.10
2019-01-30T11:45:44.429Z,13.07
2019-01-30T11:48:15.629Z,11.97
2019-01-30T11:50:46.850Z,14.37
2019-01-30T11:53:17.987Z,14.57
2019-01-30T11:55:49.185Z,15.53
2019-01-30T11:58:20.463Z,16.67
2019-01-30T12:00:55.814Z,13.70
2019-01-30T12:03:27.036Z,16.23
2019-01-30T12:05:58.314Z,19.07
2019-01-30T12:08:29.567Z,12.60
2019-01-30T12:11:00.787Z,11.50
2019-01-30T12:13:32.949Z,13.20
2019-01-30T12:16:04.228Z,12.33
2019-01-30T12:18:35.564Z,11.43
2019-01-30T12:21:06.893Z,15.50
2019-01-30T12:23:38.067Z,14.30
2019-01-30T12:26:09.316Z,12.50
2019-01-30T12:28:40.477Z,18.30
2019-01-30T12:31:11.952Z,12.07
2019-01-30T12:33:43.138Z,14.20
2019-01-30T12:36:14.464Z,16.23
2019-01-30T12:38:45.752Z,13.10
2019-01-30T12:41:16.988Z,12.03
2019-01-30T12:43:48.195Z,11.63
2019-01-30T12:46:20.109Z,17.00
2019-01-30T12:48:51.319Z,17.80
2019-01-30T12:51:22.666Z,15.00
2019-01-30T12:53:54.497Z,13.33
2019-01-30T12:56:26.075Z,16.57
2019-01-30T12:58:57.378Z,17.50
2019-01-30T13:01:30.916Z,13.38
2019-01-30T13:04:01.702Z,16.27
2019-01-30T13:06:33.092Z,17.93
2019-01-30T13:09:09.038Z,8.97
2019-01-30T13:11:40.367Z,13.00
2019-01-30T13:14:12.299Z,13.20
2019-01-30T13:16:43.475Z,15.07
2019-01-30T13:19:15.216Z,17.47
2019-01-30T13:21:46.441Z,16.27
2019-01-30T13:24:17.734Z,14.20
2019-01-30T13:26:48.948Z,13.93
2019-01-30T13:29:20.131Z,13.47
2019-01-30T13:31:51.473Z,11.80
2019-01-30T13:34:23.123Z,11.80
2019-01-30T13:36:54.623Z,9.00
2019-01-30T13:39:25.999Z,12.03
2019-01-30T13:41:57.237Z,14.20
2019-01-30T13:44:28.372Z,9.83
2019-01-30T13:46:59.842Z,12.07
2019-01-30T13:49:31.093Z,11.03
2019-01-30T13:52:02.710Z,13.08
2019-01-30T13:54:34.098Z,13.50
2019-01-30T13:57:05.302Z,12.77
2019-01-30T13:59:39.043Z,11.43
2019-01-30T14:02:10.249Z,12.43
2019-01-30T14:04:41.467Z,14.93
2019-01-30T14:07:12.874Z,11.63
2019-01-30T14:09:44.053Z,13.07
2019-01-30T14:12:15.340Z,13.57
2019-01-30T14:14:46.833Z,12.80
2019-01-30T14:17:18.029Z,11.90
2019-01-30T14:20:22.440Z,13.03
2019-01-30T14:32:14.903Z,8.57
2019-01-30T14:39:34.253Z,14.73
2019-01-30T14:42:13.342Z,13.73
2019-01-30T14:44:44.969Z,11.60
2019-01-30T14:47:17.260Z,10.53
2019-01-30T14:49:49.877Z,9.10
2019-01-30T14:52:21.466Z,11.23
2019-01-30T14:54:54.438Z,13.17
2019-01-30T14:57:25.880Z,11.10
2019-01-30T14:59:57.119Z,11.87
2019-01-30T15:02:30.150Z,12.30
2019-01-30T15:05:01.414Z,14.87
2019-01-30T15:07:32.732Z,12.30
2019-01-30T15:10:04.310Z,11.57
2019-01-30T15:12:35.456Z,9.13
2019-01-30T15:15:20.040Z,9.17
2019-01-30T15:17:51.256Z,9.90
2019-01-30T15:20:27.779Z,10.30
2019-01-30T15:22:59.405Z,11.53
2019-01-30T15:25:31.294Z,13.20
2019-01-30T15:28:03.437Z,10.03
2019-01-30T15:30:52.874Z,11.07
2019-01-30T15:33:24.075Z,9.93
2019-01-30T15:35:55.207Z,12.10
2019-01-30T15:38:27.550Z,14.30
2019-01-30T15:40:58.898Z,11.70
2019-01-30T15:43:30.147Z,13.90
2019-01-30T15:46:01.336Z,8.43
2019-01-30T15:48:32.965Z,12.40
2019-01-30T15:51:05.699Z,11.70
2019-01-30T15:53:36.928Z,12.13
2019-01-30T15:56:10.235Z,10.80
2019-01-30T15:58:42.425Z,13.53
2019-01-30T16:01:21.720Z,13.07
2019-01-30T16:03:53.026Z,14.73
2019-01-30T16:06:24.232Z,14.37
2019-01-30T16:08:55.428Z,12.47
2019-01-30T16:11:26.646Z,13.77
2019-01-30T16:14:00.168Z,11.30
2019-01-30T16:16:31.316Z,8.50
2019-01-30T16:19:02.847Z,15.53
2019-01-30T16:21:34.122Z,12.07
2019-01-30T16:24:05.892Z,12.77
2019-01-30T16:26:37.101Z,12.10
2019-01-30T16:29:08.304Z,11.07
2019-01-30T16:31:41.666Z,13.57
2019-01-30T16:34:12.882Z,15.53
2019-01-30T16:36:44.098Z,16.20
2019-01-30T16:39:15.708Z,11.70
2019-01-30T16:41:46.937Z,13.53
2019-01-30T16:44:19.168Z,12.93
2019-01-30T16:46:50.362Z,13.20
2019-01-30T16:49:21.763Z,14.83
2019-01-30T16:51:53.009Z,9.80
2019-01-30T16:54:24.262Z,12.90
2019-01-30T16:56:56.698Z,17.47
2019-01-30T16:59:27.915Z,15.93
2019-01-30T17:01:59.138Z,15.33
2019-01-30T17:04:30.418Z,15.77
2019-01-30T17:07:01.724Z,16.67
2019-01-30T17:09:32.992Z,13.57
2019-01-30T17:12:04.298Z,15.33
2019-01-30T17:14:39.883Z,22.17
2019-01-30T17:17:11.082Z,22.93
2019-01-30T17:19:42.888Z,22.43
2019-01-30T17:22:14.098Z,21.83
2019-01-30T17:24:45.441Z,15.50
2019-01-30T17:27:16.620Z,16.97
2019-01-30T17:29:48.294Z,18.27
2019-01-30T17:32:19.514Z,17.83
2019-01-30T17:34:52.029Z,16.73
2019-01-30T17:37:23.519Z,19.67
2019-01-30T17:39:54.820Z,20.27
2019-01-30T17:42:26.058Z,15.73
2019-01-30T17:44:57.230Z,17.20
2019-01-30T17:47:28.486Z,17.20
2019-01-30T17:49:59.772Z,14.97
2019-01-30T17:52:30.989Z,14.23
2019-01-30T17:55:04.507Z,16.07
2019-01-30T17:57:36.105Z,13.33
2019-01-30T18:00:18.453Z,14.10
2019-01-30T18:02:49.819Z,16.37
2019-01-30T18:05:21.039Z,13.83
2019-01-30T18:07:54.587Z,13.27
2019-01-30T18:10:25.851Z,14.73
2019-01-30T18:12:57.123Z,15.53
2019-01-30T18:15:28.316Z,16.30
2019-01-30T18:17:59.533Z,15.27
2019-01-30T18:20:31.583Z,12.98
2019-01-30T18:23:02.863Z,14.27
2019-01-30T18:25:37.604Z,15.97
2019-01-30T18:28:08.987Z,16.80
2019-01-30T18:30:40.204Z,16.43
2019-01-30T18:33:11.424Z,15.07
2019-01-30T18:35:42.814Z,13.87
2019-01-30T18:38:15.013Z,17.73
2019-01-30T18:40:46.236Z,15.07
2019-01-30T18:43:17.885Z,14.67
2019-01-30T18:45:49.162Z,15.80
2019-01-30T18:48:20.533Z,16.27
2019-01-30T18:50:51.740Z,14.50
2019-01-30T18:53:23.377Z,17.57
2019-01-30T18:55:54.627Z,11.07
2019-01-30T18:58:25.906Z,14.67
2019-01-30T19:00:57.310Z,15.17
2019-01-30T19:03:28.572Z,11.40
2019-01-30T19:06:01.325Z,16.97
2019-01-30T19:08:33.216Z,15.13
2019-01-30T19:11:04.595Z,21.77
2019-01-30T19:13:35.781Z,17.57
2019-01-30T19:16:07.214Z,18.90
2019-01-30T19:18:38.392Z,18.27
2019-01-30T19:21:12.563Z,14.90
2019-01-30T19:23:44.007Z,18.17
2019-01-30T19:26:15.231Z,12.63
2019-01-30T19:28:47.940Z,17.53
2019-01-30T19:31:19.187Z,18.87
2019-01-30T19:33:50.409Z,16.70
2019-01-30T19:36:21.621Z,17.07
2019-01-30T19:38:52.839Z,15.40
2019-01-30T19:41:24.051Z,17.23
2019-01-30T19:43:55.805Z,17.27
2019-01-30T19:46:27.010Z,17.23
2019-01-30T19:48:58.251Z,17.23
2019-01-30T19:51:29.558Z,16.73
2019-01-30T19:54:00.848Z,16.17
2019-01-30T19:56:32.077Z,17.93
2019-01-30T19:59:03.305Z,14.47
2019-01-30T20:01:36.314Z,20.30
2019-01-30T20:04:07.683Z,18.33
2019-01-30T20:06:38.910Z,17.00
2019-01-30T20:09:16.697Z,19.10
2019-01-30T20:11:48.401Z,16.97
2019-01-30T20:14:19.726Z,18.23
2019-01-30T20:16:50.982Z,15.90
2019-01-30T20:19:22.182Z,23.53
2019-01-30T20:21:53.825Z,23.70
2019-01-30T20:24:24.923Z,26.47
2019-01-30T20:26:56.124Z,23.10
2019-01-30T20:29:27.438Z,19.00
2019-01-30T20:31:58.852Z,21.68
2019-01-30T20:40:15.957Z,25.27
2019-01-30T20:41:13.484Z,20.30
2019-01-30T20:43:44.868Z,20.97
2019-01-30T20:46:16.133Z,19.20
2019-01-30T20:48:51.632Z,21.87
2019-01-30T20:51:20.464Z,17.53
2019-01-30T20:53:51.735Z,21.43
2019-01-30T20:56:24.261Z,20.90
2019-01-30T20:58:55.509Z,26.73
2019-01-30T21:01:33.611Z,21.73
2019-01-30T21:04:04.936Z,21.43
2019-01-30T21:06:36.334Z,25.23
2019-01-30T21:09:16.594Z,22.20
2019-01-30T21:11:48.887Z,21.80
2019-01-30T21:14:22.147Z,18.67
2019-01-30T21:16:55.071Z,18.77
2019-01-30T21:19:29.083Z,14.77
2019-01-30T21:22:01.937Z,13.83
2019-01-30T21:24:34.389Z,16.27
2019-01-30T21:27:06.062Z,16.67
2019-01-30T21:29:38.828Z,18.20
2019-01-30T21:32:10.047Z,17.83
2019-01-30T21:34:41.504Z,16.43
2019-01-30T21:37:16.055Z,16.97
2019-01-30T21:39:47.170Z,16.63
2019-01-30T21:42:20.357Z,15.37
2019-01-30T21:44:51.513Z,14.93
2019-01-30T21:47:26.599Z,13.43
2019-01-30T21:49:57.811Z,12.23
2019-01-30T21:52:29.543Z,15.80
2019-01-30T21:55:00.713Z,10.87
2019-01-30T21:57:31.965Z,12.53
2019-01-30T22:00:03.489Z,18.23
2019-01-30T22:02:35.618Z,15.67
2019-01-30T22:05:07.551Z,15.70
2019-01-30T22:07:38.828Z,14.40
2019-01-30T22:10:12.131Z,14.40
2019-01-30T22:12:44.043Z,15.13
2019-01-30T22:15:15.636Z,13.37
2019-01-30T22:17:46.738Z,13.17
2019-01-30T22:20:19.939Z,13.77
2019-01-30T22:22:52.724Z,16.73
2019-01-30T22:25:24.278Z,17.00
2019-01-30T22:27:55.602Z,14.73
2019-01-30T22:30:31.836Z,10.87
2019-01-30T22:33:03.136Z,10.10
2019-01-30T22:35:34.559Z,12.60
2019-01-30T22:38:12.718Z,9.47
2019-01-30T22:40:39.114Z,9.67
2019-01-30T22:43:10.442Z,12.33
2019-01-30T22:45:41.616Z,12.37
2019-01-30T22:48:13.018Z,9.57
2019-01-30T22:50:44.080Z,13.20
2019-01-30T22:53:18.043Z,11.13
2019-01-30T22:55:49.229Z,9.27
2019-01-30T22:58:20.336Z,12.20
2019-01-30T23:01:20.645Z,14.33
2019-01-30T23:04:22.844Z,14.17
2019-01-30T23:07:14.023Z,12.50
2019-01-30T23:10:15.434Z,11.80
2019-01-30T23:13:26.587Z,11.12
2019-01-30T23:16:43.238Z,10.63
2019-01-30T23:19:30.632Z,11.57
2019-01-30T23:22:10.637Z,14.80
2019-01-30T23:25:35.754Z,10.17
2019-01-30T23:28:17.726Z,10.77
2019-01-30T23:31:38.926Z,11.67
2019-01-30T23:34:39.285Z,13.20
2019-01-30T23:37:39.613Z,10.93
2019-01-30T23:40:37.044Z,8.87
2019-01-30T23:43:29.156Z,9.90
2019-01-30T23:46:24.800Z,9.13
2019-01-30T23:49:31.887Z,11.87
2019-01-30T23:52:35.302Z,8.90
2019-01-30T23:55:44.599Z,9.43
2019-01-30T23:58:42.384Z,11.43
